Terminal Aerodrome Forecast
Issued by NWS Caribou, ME

Home | Current Version | Previous Version | Text Only | Print | Product List | Glossary On
Versions: 1 2 3 4 5 6 7 8 9 10 11 12 13 14 15 16 17 18 19 20 21 22 23 24 25 26 27 28 29
000
FTUS41 KCAR 242300
TAFBGR
TAF
KBGR 242335Z 2500/2524 34005KT 6SM -SHRA OVC015
     FM250300 34004KT P6SM VCSH OVC025
     FM250500 33004KT P6SM BKN040
     FM250900 VRB02KT 3SM BR SCT060
     FM251200 32004KT P6SM SCT080
     FM252000 26005KT P6SM SCT100
     FM252300 19004KT P6SM SCT120=

USA.gov is the U.S. government's official web portal to all federal, state and local government web resources and services.